Time;durP1;ratioP1;P1;durP2;ratioP2;P2;SDS_P1;SDS_P2;PMS_P1;PMS_P2;Temp;Humidity;BMP_temperature;BMP_pressure;BME280_temperature;BME280_humidity;BME280_pressure;Samples;Min_cycle;Max_cycle;Signal;HPM_P1;HPM_P2
2021/12/16 00:03:40;;;;;;;18.58;9.32;;;5.80;99.90;;;;;;5071259;28;20073;-82
2021/12/16 00:06:45;;;;;;;22.23;10.35;;;5.80;99.90;;;;;;5071307;28;20406;-83
2021/12/16 00:09:00;;;;;;;20.63;9.35;;;5.80;99.90;;;;;;5079615;28;20655;-83
2021/12/16 00:28:56;;;;;;;17.55;8.13;;;5.80;99.90;;;;;;5025349;28;20044;-82
2021/12/16 00:34:00;;;;;;;21.08;7.72;;;5.80;99.90;;;;;;5091592;28;20058;-83
2021/12/16 00:36:07;;;;;;;19.98;8.05;;;5.80;99.90;;;;;;5057199;28;20126;-82
2021/12/16 00:38:33;;;;;;;17.98;8.18;;;5.80;99.90;;;;;;5054575;28;20035;-82
2021/12/16 00:41:00;;;;;;;15.45;7.72;;;5.80;99.90;;;;;;5062928;28;20036;-82
2021/12/16 00:56:33;;;;;;;16.05;7.80;;;5.70;99.90;;;;;;5073806;28;20439;-82
2021/12/16 00:59:01;;;;;;;21.70;8.68;;;5.70;99.90;;;;;;5053604;28;20028;-82
2021/12/16 01:01:39;;;;;;;16.90;7.75;;;5.70;99.90;;;;;;5034204;28;20796;-82
2021/12/16 01:34:49;;;;;;;18.13;9.20;;;5.60;99.90;;;;;;5067126;28;20066;-82
2021/12/16 01:48:45;;;;;;;16.48;7.55;;;5.60;99.90;;;;;;5054561;28;20118;-82
2021/12/16 01:50:52;;;;;;;15.10;7.43;;;5.50;99.90;;;;;;5069921;28;20032;-82
2021/12/16 01:55:58;;;;;;;19.08;8.15;;;5.50;99.90;;;;;;5038308;28;20119;-82
2021/12/16 01:58:27;;;;;;;16.38;7.53;;;5.50;99.90;;;;;;5028460;28;20044;-82
2021/12/16 02:01:16;;;;;;;18.25;7.95;;;5.50;99.90;;;;;;5052401;28;20039;-82
2021/12/16 02:09:09;;;;;;;13.48;6.68;;;5.50;99.90;;;;;;5085871;28;20486;-82
2021/12/16 02:11:54;;;;;;;16.83;7.32;;;5.50;99.90;;;;;;5068258;28;20087;-82
2021/12/16 02:28:29;;;;;;;20.27;8.35;;;5.50;99.90;;;;;;5068236;28;20092;-83
2021/12/16 02:36:13;;;;;;;18.27;8.52;;;5.50;99.90;;;;;;5091744;28;20024;-82
2021/12/16 02:38:42;;;;;;;17.65;8.82;;;5.50;99.90;;;;;;5059209;28;20024;-82
2021/12/16 02:41:08;;;;;;;13.95;8.05;;;5.50;99.90;;;;;;5073312;28;20278;-82
2021/12/16 02:48:43;;;;;;;20.65;7.90;;;5.50;99.90;;;;;;5077253;28;20024;-82
2021/12/16 02:51:11;;;;;;;16.63;8.15;;;5.50;99.90;;;;;;5074637;28;20031;-83
2021/12/16 02:53:42;;;;;;;23.35;7.50;;;5.50;99.90;;;;;;5077355;28;20084;-82
2021/12/16 02:56:08;;;;;;;18.35;9.18;;;5.50;99.90;;;;;;5055386;28;20037;-82
2021/12/16 02:58:38;;;;;;;20.42;8.65;;;5.50;99.90;;;;;;5081302;28;20043;-82
2021/12/16 03:01:09;;;;;;;17.08;9.07;;;5.50;99.90;;;;;;5073900;28;20507;-82
2021/12/16 03:03:38;;;;;;;19.98;8.57;;;5.50;99.90;;;;;;5057341;28;20024;-82
2021/12/16 03:06:04;;;;;;;16.05;7.75;;;5.50;99.90;;;;;;5065668;28;20055;-82
2021/12/16 03:08:32;;;;;;;17.52;7.53;;;5.50;99.90;;;;;;5065049;28;20020;-82
2021/12/16 03:14:20;;;;;;;16.27;7.63;;;5.50;99.90;;;;;;5082672;28;20165;-82
2021/12/16 03:17:02;;;;;;;16.17;6.93;;;5.50;99.90;;;;;;5084116;28;20500;-82
2021/12/16 03:21:59;;;;;;;17.17;8.55;;;5.40;99.90;;;;;;5095225;28;20106;-82
2021/12/16 03:32:19;;;;;;;17.25;7.18;;;5.50;99.90;;;;;;5072517;28;20032;-82
2021/12/16 03:37:53;;;;;;;17.17;7.80;;;5.40;99.90;;;;;;5077682;28;20038;-83
2021/12/16 03:40:20;;;;;;;17.60;8.52;;;5.40;99.90;;;;;;5071782;28;20024;-82
2021/12/16 03:42:56;;;;;;;13.85;6.65;;;5.40;99.90;;;;;;5039146;28;20064;-82
2021/12/16 03:48:51;;;;;;;16.33;7.80;;;5.40;99.90;;;;;;5080801;28;20036;-83
2021/12/16 03:51:29;;;;;;;17.33;7.50;;;5.40;99.90;;;;;;5071642;28;20038;-83
2021/12/16 03:54:00;;;;;;;17.45;8.05;;;5.40;99.90;;;;;;5083088;28;20024;-82
2021/12/16 03:56:27;;;;;;;15.55;7.05;;;5.40;99.90;;;;;;5069309;28;20034;-82
2021/12/16 03:58:53;;;;;;;13.02;7.35;;;5.40;99.90;;;;;;5083182;28;20486;-82
2021/12/16 04:01:24;;;;;;;18.55;7.38;;;5.40;99.90;;;;;;5056441;28;20039;-82
2021/12/16 04:03:50;;;;;;;15.05;7.35;;;5.40;99.90;;;;;;5055064;28;20032;-82
2021/12/16 04:06:20;;;;;;;16.75;7.55;;;5.40;99.90;;;;;;5038748;28;20427;-82
2021/12/16 04:08:46;;;;;;;14.18;7.32;;;5.40;99.90;;;;;;5069417;28;20032;-82
2021/12/16 04:11:21;;;;;;;14.20;7.32;;;5.40;99.90;;;;;;5055104;28;20508;-83
2021/12/16 04:13:57;;;;;;;15.70;7.57;;;5.40;99.90;;;;;;5055661;28;20444;-83
2021/12/16 04:16:32;;;;;;;15.05;6.85;;;5.40;99.90;;;;;;5055932;28;20058;-83
2021/12/16 04:18:59;;;;;;;17.55;6.88;;;5.50;99.90;;;;;;5066116;28;20040;-83
2021/12/16 04:21:27;;;;;;;18.13;7.88;;;5.40;99.90;;;;;;5085859;28;20051;-82
2021/12/16 04:23:56;;;;;;;16.35;7.00;;;5.40;99.90;;;;;;5073185;28;20032;-82
2021/12/16 04:26:23;;;;;;;20.63;7.90;;;5.50;99.90;;;;;;5070806;28;20086;-82
2021/12/16 04:28:49;;;;;;;20.15;8.75;;;5.50;99.90;;;;;;5074321;28;20024;-82
2021/12/16 04:31:15;;;;;;;20.08;9.45;;;5.50;99.90;;;;;;5089370;28;20063;-82
2021/12/16 04:33:41;;;;;;;18.73;8.65;;;5.50;99.90;;;;;;5072733;28;20071;-81
2021/12/16 04:36:09;;;;;;;19.77;8.82;;;5.50;99.90;;;;;;5058054;28;20035;-82
2021/12/16 04:38:36;;;;;;;23.85;10.30;;;5.50;99.90;;;;;;5056190;28;20119;-82
2021/12/16 04:41:05;;;;;;;20.30;8.77;;;5.50;99.90;;;;;;5075720;28;20031;-82
2021/12/16 04:43:40;;;;;;;23.10;10.63;;;5.50;99.90;;;;;;5040587;28;20617;-82
2021/12/16 04:46:17;;;;;;;22.55;10.63;;;5.50;99.90;;;;;;5073001;28;20028;-82
2021/12/16 04:48:47;;;;;;;26.23;10.98;;;5.50;99.90;;;;;;5077130;28;20027;-82
2021/12/16 04:51:16;;;;;;;25.60;11.32;;;5.50;99.90;;;;;;5060654;28;20063;-82
2021/12/16 04:53:43;;;;;;;23.08;9.52;;;5.50;99.90;;;;;;5058734;28;20024;-82
2021/12/16 04:56:11;;;;;;;24.13;10.18;;;5.50;99.90;;;;;;5070298;28;20355;-82
2021/12/16 04:58:38;;;;;;;20.17;10.02;;;5.50;99.90;;;;;;5061233;28;20032;-82
2021/12/16 05:01:04;;;;;;;20.80;9.40;;;5.50;99.90;;;;;;5076406;28;20032;-82
2021/12/16 05:03:31;;;;;;;23.10;10.55;;;5.50;99.90;;;;;;5059785;28;20056;-83
2021/12/16 05:05:57;;;;;;;19.10;9.20;;;5.40;99.90;;;;;;5074664;28;20664;-82
2021/12/16 05:08:24;;;;;;;25.88;10.45;;;5.50;99.90;;;;;;5076257;28;20406;-83
2021/12/16 05:10:53;;;;;;;28.10;12.18;;;5.50;99.90;;;;;;5074897;28;20031;-82
2021/12/16 05:13:23;;;;;;;20.02;10.13;;;5.50;99.90;;;;;;5075200;28;20458;-83
2021/12/16 05:15:49;;;;;;;22.52;9.63;;;5.50;99.90;;;;;;5058904;28;20032;-83
2021/12/16 05:18:23;;;;;;;20.35;9.60;;;5.50;99.90;;;;;;5059318;28;20122;-82
2021/12/16 05:20:50;;;;;;;20.70;10.48;;;5.40;99.90;;;;;;5075067;28;20035;-83
2021/12/16 05:28:29;;;;;;;27.33;9.82;;;5.50;99.90;;;;;;5084954;28;20510;-82
2021/12/16 05:30:56;;;;;;;22.08;10.02;;;5.50;99.90;;;;;;5075753;28;20031;-82
2021/12/16 05:33:23;;;;;;;21.58;10.00;;;5.50;99.90;;;;;;5078349;28;20024;-82
2021/12/16 05:35:50;;;;;;;18.42;8.68;;;5.50;99.90;;;;;;5061108;28;20020;-82
2021/12/16 05:38:16;;;;;;;23.33;10.10;;;5.50;99.90;;;;;;5066146;28;20502;-82
2021/12/16 05:40:42;;;;;;;25.50;11.10;;;5.50;99.90;;;;;;5070888;28;20031;-82
2021/12/16 05:43:11;;;;;;;27.05;11.40;;;5.50;99.90;;;;;;5058094;28;20028;-82
2021/12/16 05:45:38;;;;;;;24.98;10.93;;;5.50;99.90;;;;;;5064866;28;20031;-82
2021/12/16 05:48:07;;;;;;;19.70;9.60;;;5.50;99.90;;;;;;5071707;28;20032;-82
2021/12/16 05:50:36;;;;;;;24.38;11.27;;;5.50;99.90;;;;;;5058051;28;20038;-82
2021/12/16 05:53:03;;;;;;;21.92;10.05;;;5.50;99.90;;;;;;5061606;28;20059;-82
2021/12/16 05:55:29;;;;;;;25.83;11.18;;;5.50;99.90;;;;;;5074163;28;20028;-82
2021/12/16 05:57:56;;;;;;;23.65;10.30;;;5.50;99.90;;;;;;5074110;28;20122;-82
2021/12/16 06:00:29;;;;;;;24.80;10.85;;;5.50;99.90;;;;;;5080615;28;20024;-82
2021/12/16 06:02:55;;;;;;;21.25;9.85;;;5.50;99.90;;;;;;5059090;28;20088;-82
2021/12/16 06:05:20;;;;;;;27.58;10.90;;;5.50;99.90;;;;;;5075159;28;20438;-82
2021/12/16 06:07:46;;;;;;;26.02;11.93;;;5.50;99.90;;;;;;5043287;28;20035;-82
2021/12/16 06:10:52;;;;;;;26.40;11.55;;;5.40;99.90;;;;;;5061034;28;20310;-82
2021/12/16 06:13:02;;;;;;;25.48;10.45;;;5.50;99.90;;;;;;5105884;28;20134;-82
2021/12/16 06:26:30;;;;;;;23.88;10.43;;;5.40;99.90;;;;;;5101261;28;20076;-82
2021/12/16 06:28:55;;;;;;;29.13;11.80;;;5.40;99.90;;;;;;5076000;28;20028;-82
2021/12/16 06:31:21;;;;;;;27.27;11.55;;;5.40;99.90;;;;;;5076857;28;20453;-82
2021/12/16 06:33:48;;;;;;;30.98;13.13;;;5.40;99.90;;;;;;5049282;28;20027;-82
2021/12/16 06:36:14;;;;;;;32.80;12.63;;;5.40;99.90;;;;;;5073167;28;20836;-82
2021/12/16 06:38:39;;;;;;;33.80;13.00;;;5.40;99.90;;;;;;5065379;28;20044;-82
2021/12/16 06:41:05;;;;;;;30.75;13.05;;;5.40;99.90;;;;;;5056483;28;20028;-82
2021/12/16 06:43:32;;;;;;;23.08;11.20;;;5.40;99.90;;;;;;5057807;28;20021;-82
2021/12/16 06:46:01;;;;;;;25.45;11.95;;;5.40;99.90;;;;;;5057163;28;20028;-82
2021/12/16 06:48:31;;;;;;;29.00;12.87;;;5.40;99.90;;;;;;5075502;28;20044;-82
2021/12/16 06:51:03;;;;;;;28.02;11.90;;;5.40;99.90;;;;;;5060848;28;20028;-81
2021/12/16 06:53:48;;;;;;;29.50;12.70;;;5.40;99.90;;;;;;5073228;28;20486;-82
2021/12/16 06:56:27;;;;;;;27.08;11.68;;;5.40;99.90;;;;;;5060095;28;20494;-82
2021/12/16 06:59:07;;;;;;;24.25;11.85;;;5.40;99.90;;;;;;5064736;28;20057;-82
2021/12/16 07:01:40;;;;;;;26.75;10.77;;;5.40;99.90;;;;;;5074778;28;20491;-82
2021/12/16 07:04:09;;;;;;;28.67;12.52;;;5.40;99.90;;;;;;5062129;28;20050;-82
2021/12/16 07:06:38;;;;;;;25.73;11.00;;;5.40;99.90;;;;;;5065259;28;20406;-82
2021/12/16 07:09:18;;;;;;;22.25;10.32;;;5.40;99.90;;;;;;5056935;28;20084;-82
2021/12/16 07:11:48;;;;;;;31.97;11.60;;;5.40;99.90;;;;;;5039404;28;20032;-82
2021/12/16 07:14:17;;;;;;;23.13;11.65;;;5.40;99.90;;;;;;5049229;28;20509;-83
2021/12/16 07:16:44;;;;;;;25.70;10.88;;;5.30;99.90;;;;;;5052177;28;20040;-83
2021/12/16 07:19:10;;;;;;;26.63;10.95;;;5.40;99.90;;;;;;5040672;28;20131;-83
2021/12/16 07:21:40;;;;;;;24.08;11.73;;;5.40;99.90;;;;;;5070758;28;20035;-83
2021/12/16 07:24:09;;;;;;;28.38;11.02;;;5.40;99.90;;;;;;5076329;28;20439;-83
2021/12/16 07:26:35;;;;;;;26.65;11.13;;;5.40;99.90;;;;;;5042858;28;20039;-84
2021/12/16 07:29:04;;;;;;;23.85;10.77;;;5.40;99.90;;;;;;5069489;28;20092;-83
2021/12/16 07:31:30;;;;;;;24.55;11.93;;;5.40;99.90;;;;;;5092591;28;20482;-84
2021/12/16 07:33:57;;;;;;;27.92;11.88;;;5.40;99.90;;;;;;5077782;28;20032;-83
2021/12/16 07:36:23;;;;;;;25.92;12.32;;;5.40;99.90;;;;;;5072355;28;20024;-84
2021/12/16 07:38:50;;;;;;;22.25;11.02;;;5.40;99.90;;;;;;5084750;28;20032;-83
2021/12/16 07:41:20;;;;;;;27.33;11.93;;;5.40;99.90;;;;;;5055586;28;20085;-82
2021/12/16 07:44:20;;;;;;;25.58;11.50;;;5.40;99.90;;;;;;5060651;28;20137;-83
2021/12/16 07:46:44;;;;;;;25.05;10.85;;;5.30;99.90;;;;;;5067919;28;20035;-83
2021/12/16 07:49:13;;;;;;;26.88;11.25;;;5.40;99.90;;;;;;5060976;28;20085;-83
2021/12/16 07:51:40;;;;;;;31.45;13.77;;;5.40;99.90;;;;;;5064077;28;20482;-83
2021/12/16 07:54:08;;;;;;;25.50;11.10;;;5.40;99.90;;;;;;5074351;28;20468;-84
2021/12/16 07:56:34;;;;;;;30.00;12.35;;;5.40;99.90;;;;;;5066804;28;20032;-83
2021/12/16 07:59:00;;;;;;;21.42;10.30;;;5.40;99.90;;;;;;5052604;28;20028;-83
2021/12/16 08:01:27;;;;;;;29.65;11.73;;;5.50;99.90;;;;;;5054620;28;20109;-82
2021/12/16 08:03:53;;;;;;;27.63;11.73;;;5.50;99.90;;;;;;5056394;28;20457;-83
2021/12/16 08:06:23;;;;;;;24.70;11.65;;;5.50;99.90;;;;;;5056378;28;20028;-83
2021/12/16 08:08:52;;;;;;;26.60;11.02;;;5.50;99.90;;;;;;5056845;28;20486;-83
2021/12/16 08:11:18;;;;;;;27.20;11.40;;;5.50;99.90;;;;;;5080353;28;20410;-83
2021/12/16 08:13:43;;;;;;;21.60;10.23;;;5.60;99.90;;;;;;5048312;28;20094;-83
2021/12/16 08:16:16;;;;;;;23.80;10.98;;;5.60;99.90;;;;;;5048680;28;20440;-83
2021/12/16 08:18:45;;;;;;;18.52;9.55;;;5.60;99.90;;;;;;5055419;28;20029;-83
2021/12/16 08:21:11;;;;;;;23.13;10.30;;;5.70;99.90;;;;;;5046949;28;20036;-83
2021/12/16 08:23:37;;;;;;;26.70;11.32;;;5.70;99.90;;;;;;5061397;28;20112;-83
2021/12/16 08:26:03;;;;;;;24.23;10.18;;;5.70;99.90;;;;;;5066612;28;20027;-83
2021/12/16 08:28:29;;;;;;;25.38;10.57;;;5.80;99.90;;;;;;5090556;28;20099;-83
2021/12/16 08:30:55;;;;;;;22.50;10.48;;;5.90;99.90;;;;;;5063528;28;20472;-83
2021/12/16 08:33:20;;;;;;;21.52;10.20;;;5.90;99.90;;;;;;5089637;28;20016;-83
2021/12/16 08:35:49;;;;;;;23.27;10.55;;;5.90;99.90;;;;;;5099328;28;20114;-83
2021/12/16 08:38:19;;;;;;;21.90;10.07;;;6.00;99.90;;;;;;5092326;28;20111;-83
2021/12/16 08:40:47;;;;;;;29.50;10.90;;;6.00;99.90;;;;;;5077433;28;20032;-83
2021/12/16 08:43:14;;;;;;;27.23;11.68;;;6.00;99.90;;;;;;5073001;28;20039;-82
2021/12/16 08:45:41;;;;;;;22.58;11.38;;;6.10;99.90;;;;;;5082606;28;20110;-83
2021/12/16 08:48:08;;;;;;;26.60;11.45;;;6.10;99.90;;;;;;5067934;28;20168;-83
2021/12/16 08:50:37;;;;;;;25.42;12.15;;;6.10;99.90;;;;;;5064997;28;20398;-83
2021/12/16 08:53:05;;;;;;;25.35;12.02;;;6.20;99.90;;;;;;5046871;28;20032;-83
2021/12/16 08:55:33;;;;;;;27.05;13.07;;;6.20;99.90;;;;;;5063335;28;20032;-83
2021/12/16 08:57:59;;;;;;;24.58;11.90;;;6.20;99.90;;;;;;5045682;28;20077;-83
2021/12/16 09:00:34;;;;;;;23.48;12.50;;;6.20;99.90;;;;;;5087600;28;20082;-83
2021/12/16 09:03:00;;;;;;;28.85;11.32;;;6.30;99.90;;;;;;5098859;28;20028;-82
2021/12/16 09:05:28;;;;;;;30.27;12.45;;;6.30;99.90;;;;;;5097838;28;20027;-83
2021/12/16 09:07:54;;;;;;;25.15;11.57;;;6.40;99.90;;;;;;5092117;28;20073;-82
2021/12/16 09:10:27;;;;;;;26.67;13.10;;;6.40;99.90;;;;;;5045642;28;20032;-82
2021/12/16 09:13:02;;;;;;;23.58;12.18;;;6.50;99.90;;;;;;5078613;28;20051;-83
2021/12/16 09:15:31;;;;;;;26.58;12.88;;;6.60;99.90;;;;;;5064314;28;20445;-82
2021/12/16 09:18:00;;;;;;;24.23;11.45;;;6.60;99.90;;;;;;5055281;28;20084;-82
2021/12/16 09:20:26;;;;;;;22.73;11.60;;;6.60;99.90;;;;;;5048427;28;20028;-82
2021/12/16 09:22:52;;;;;;;27.75;10.82;;;6.70;99.90;;;;;;5078739;28;20035;-82
2021/12/16 09:25:21;;;;;;;25.27;11.18;;;6.70;99.90;;;;;;5062170;28;20032;-83
2021/12/16 09:27:47;;;;;;;26.42;11.68;;;6.80;99.90;;;;;;5079524;28;20055;-83
2021/12/16 09:30:17;;;;;;;20.45;10.02;;;6.80;99.90;;;;;;5073398;28;20036;-82
2021/12/16 09:32:44;;;;;;;20.20;10.60;;;6.80;99.90;;;;;;5081843;28;20100;-82
2021/12/16 09:35:11;;;;;;;22.10;9.98;;;6.80;99.90;;;;;;5098837;28;20115;-83
2021/12/16 09:37:38;;;;;;;17.80;8.73;;;6.90;99.90;;;;;;5081390;28;20493;-83
2021/12/16 09:40:07;;;;;;;21.27;10.02;;;7.00;99.90;;;;;;5081202;28;20062;-83
2021/12/16 09:42:35;;;;;;;25.60;11.73;;;7.00;99.90;;;;;;5098306;28;20042;-82
2021/12/16 09:45:03;;;;;;;24.27;12.05;;;7.20;99.90;;;;;;5081718;28;20028;-83
2021/12/16 09:47:29;;;;;;;24.80;11.27;;;7.20;99.90;;;;;;5080980;28;20026;-82
2021/12/16 09:49:54;;;;;;;23.88;10.80;;;7.30;99.90;;;;;;5098321;28;20110;-83
2021/12/16 09:52:21;;;;;;;22.75;11.52;;;7.30;99.90;;;;;;5065400;28;20031;-83
2021/12/16 09:54:46;;;;;;;24.08;12.15;;;7.40;99.90;;;;;;5098638;28;20371;-83
2021/12/16 09:57:15;;;;;;;20.60;10.95;;;7.40;99.90;;;;;;5098680;28;20039;-83
2021/12/16 09:59:41;;;;;;;26.38;12.00;;;7.40;99.90;;;;;;5065087;28;20038;-83
2021/12/16 10:02:13;;;;;;;27.08;13.05;;;7.40;99.90;;;;;;5098551;28;20456;-82
2021/12/16 10:04:39;;;;;;;28.23;13.60;;;7.50;99.90;;;;;;5082127;28;20287;-82
2021/12/16 10:07:13;;;;;;;28.73;13.30;;;7.50;99.90;;;;;;5081180;28;20028;-83
2021/12/16 10:09:39;;;;;;;25.20;13.50;;;7.50;99.90;;;;;;5098609;28;20023;-83
2021/12/16 10:12:11;;;;;;;28.80;13.32;;;7.60;99.90;;;;;;5097867;28;20074;-83
2021/12/16 10:15:01;;;;;;;30.88;13.35;;;7.60;99.90;;;;;;5098364;28;20023;-83
2021/12/16 10:17:40;;;;;;;28.92;12.23;;;7.60;99.90;;;;;;5097872;28;20019;-83
2021/12/16 10:20:15;;;;;;;28.65;13.35;;;7.70;99.90;;;;;;5098027;28;20047;-83
2021/12/16 10:22:42;;;;;;;20.88;10.85;;;7.70;99.90;;;;;;5098163;28;20031;-83
2021/12/16 10:25:23;;;;;;;24.75;12.45;;;7.80;99.90;;;;;;5081661;28;20099;-83
2021/12/16 10:28:03;;;;;;;21.30;10.77;;;7.80;99.90;;;;;;5098017;28;20076;-83
2021/12/16 10:31:02;;;;;;;22.58;12.13;;;7.80;99.90;;;;;;5081210;28;20020;-83
2021/12/16 10:33:32;;;;;;;27.95;10.80;;;7.80;99.90;;;;;;5054998;28;20031;-82
2021/12/16 10:36:20;;;;;;;22.92;11.30;;;7.80;99.90;;;;;;5098581;28;20054;-83
2021/12/16 10:38:51;;;;;;;23.80;11.00;;;7.90;99.90;;;;;;5083397;28;20498;-83
2021/12/16 10:41:24;;;;;;;25.25;11.70;;;7.90;99.90;;;;;;5098027;28;20482;-83
2021/12/16 10:44:12;;;;;;;22.05;10.60;;;7.90;99.90;;;;;;5065238;28;20035;-83
2021/12/16 10:46:43;;;;;;;25.00;12.80;;;8.00;99.90;;;;;;5098137;28;20525;-83
2021/12/16 10:49:17;;;;;;;24.40;11.35;;;8.00;99.90;;;;;;5098042;28;20023;-83
2021/12/16 10:51:46;;;;;;;22.63;11.82;;;8.00;99.90;;;;;;5082220;28;20095;-83
2021/12/16 10:54:16;;;;;;;23.80;12.00;;;8.00;99.90;;;;;;5081405;28;20069;-82
2021/12/16 10:57:02;;;;;;;20.63;10.93;;;8.10;99.90;;;;;;5081037;28;20035;-83
2021/12/16 10:59:36;;;;;;;26.55;12.45;;;8.10;99.90;;;;;;5097856;28;20039;-83
2021/12/16 11:02:12;;;;;;;22.05;11.32;;;8.20;99.90;;;;;;5081456;28;20024;-83
2021/12/16 11:04:43;;;;;;;20.45;10.50;;;8.20;99.90;;;;;;5097829;28;20248;-83
2021/12/16 11:07:11;;;;;;;;;;;8.20;99.90;;;;;;5097813;28;20024;-82
2021/12/16 11:09:48;;;;;;;20.08;10.05;;;8.30;99.90;;;;;;5097475;28;19903;-83
2021/12/16 11:12:22;;;;;;;18.63;9.95;;;8.30;99.90;;;;;;5097445;28;20565;-83
2021/12/16 11:15:11;;;;;;;20.48;10.15;;;8.40;99.90;;;;;;5082125;28;20027;-83
2021/12/16 11:17:39;;;;;;;16.75;9.02;;;8.50;99.90;;;;;;5081093;28;20032;-83
2021/12/16 11:20:23;;;;;;;18.63;10.60;;;8.50;99.90;;;;;;5098262;28;20120;-83
2021/12/16 11:22:55;;;;;;;19.63;9.35;;;8.70;99.90;;;;;;5097868;28;20023;-83
2021/12/16 11:25:26;;;;;;;15.00;9.07;;;8.70;99.90;;;;;;5081836;28;20077;-83
2021/12/16 11:27:56;;;;;;;17.25;8.77;;;8.80;99.90;;;;;;5081344;28;20038;-83
2021/12/16 11:30:33;;;;;;;15.00;8.57;;;8.80;99.90;;;;;;5098333;28;20032;-83
2021/12/16 11:33:15;;;;;;;14.73;8.32;;;8.90;99.90;;;;;;5081647;28;20032;-83
2021/12/16 11:35:53;;;;;;;16.58;8.40;;;8.90;99.90;;;;;;5081461;28;20058;-83
2021/12/16 11:38:24;;;;;;;13.73;7.82;;;8.90;99.90;;;;;;5097900;28;20118;-83
2021/12/16 11:40:56;;;;;;;14.07;6.93;;;8.90;99.90;;;;;;5097796;28;20045;-83
2021/12/16 11:43:54;;;;;;;12.02;6.78;;;9.00;99.90;;;;;;5097832;28;20024;-83
2021/12/16 11:46:47;;;;;;;11.55;6.93;;;9.00;99.90;;;;;;5064434;28;20042;-82
2021/12/16 11:49:21;;;;;;;11.70;6.10;;;9.10;99.90;;;;;;5095816;28;20462;-82
2021/12/16 11:52:10;;;;;;;14.07;6.35;;;9.10;99.90;;;;;;5083967;28;20525;-82
2021/12/16 11:54:48;;;;;;;11.55;6.78;;;9.20;99.90;;;;;;5105593;28;20124;-83
2021/12/16 11:57:26;;;;;;;20.50;7.88;;;9.30;99.90;;;;;;5101022;28;20023;-82
2021/12/16 11:59:58;;;;;;;15.18;8.20;;;9.40;99.90;;;;;;5083685;28;20104;-82
2021/12/16 12:02:44;;;;;;;15.68;7.85;;;9.50;99.90;;;;;;5082264;28;20084;-83
2021/12/16 12:05:22;;;;;;;19.77;7.57;;;9.50;99.90;;;;;;5081998;28;20081;-83
2021/12/16 12:07:53;;;;;;;13.77;7.85;;;9.60;99.90;;;;;;5082297;28;20027;-83
2021/12/16 12:10:38;;;;;;;14.50;6.97;;;9.60;99.90;;;;;;5082306;28;20024;-82
2021/12/16 12:13:07;;;;;;;21.02;7.07;;;9.60;99.90;;;;;;5098510;28;20587;-82
2021/12/16 12:15:51;;;;;;;11.50;6.93;;;9.60;99.90;;;;;;5081722;28;20416;-82
2021/12/16 12:18:50;;;;;;;10.32;5.97;;;9.60;99.90;;;;;;5098528;28;20085;-83
2021/12/16 12:21:25;;;;;;;12.83;6.77;;;9.50;99.90;;;;;;5054893;28;20595;-82
2021/12/16 12:23:56;;;;;;;8.23;4.85;;;9.40;99.90;;;;;;5098628;28;20105;-83
2021/12/16 12:26:23;;;;;;;7.85;4.47;;;9.30;99.90;;;;;;5098697;28;20020;-82
2021/12/16 12:28:53;;;;;;;9.23;3.90;;;9.10;99.90;;;;;;5081404;28;20042;-82
2021/12/16 12:31:24;;;;;;;6.65;3.72;;;9.00;99.90;;;;;;5081737;28;20028;-82
2021/12/16 12:33:50;;;;;;;8.48;3.65;;;8.90;99.90;;;;;;5098441;28;20067;-82
2021/12/16 12:36:18;;;;;;;6.43;3.90;;;8.80;99.90;;;;;;5081719;28;20444;-82
2021/12/16 12:38:43;;;;;;;8.20;3.90;;;8.80;99.90;;;;;;5081928;28;20089;-83
2021/12/16 12:41:09;;;;;;;7.78;3.83;;;8.70;99.90;;;;;;5081778;28;20410;-82
2021/12/16 12:43:37;;;;;;;5.70;3.30;;;8.70;99.90;;;;;;5098707;28;20036;-82
2021/12/16 12:46:05;;;;;;;5.75;3.58;;;8.80;99.90;;;;;;5097976;28;20027;-82
2021/12/16 12:48:34;;;;;;;7.70;4.35;;;8.90;99.90;;;;;;5098199;28;20028;-82
2021/12/16 12:51:00;;;;;;;8.15;3.92;;;9.10;99.90;;;;;;5099555;28;20114;-82
2021/12/16 12:53:30;;;;;;;5.93;3.60;;;9.20;99.90;;;;;;5082486;28;20385;-82
2021/12/16 12:56:19;;;;;;;6.90;3.28;;;9.30;99.90;;;;;;5098657;28;20026;-82
2021/12/16 12:59:11;;;;;;;8.95;4.32;;;9.50;99.90;;;;;;5081529;28;20497;-82
2021/12/16 13:01:41;;;;;;;6.72;3.35;;;9.50;99.90;;;;;;5098855;28;20019;-82
2021/12/16 13:04:09;;;;;;;;;;;9.60;99.90;;;;;;5099470;28;20026;-82
2021/12/16 13:06:59;;;;;;;9.52;3.90;;;9.60;99.70;;;;;;5081146;28;19912;-82
2021/12/16 13:09:35;;;;;;;5.93;3.03;;;9.70;98.70;;;;;;5098442;28;20015;-82
2021/12/16 13:12:27;;;;;;;6.57;3.70;;;9.70;99.30;;;;;;5099082;28;20036;-82
2021/12/16 13:15:03;;;;;;;6.43;2.78;;;9.80;99.50;;;;;;5084966;28;20503;-82
2021/12/16 13:23:26;;;;;;;7.72;3.28;;;9.80;98.70;;;;;;5098278;28;20027;-82
2021/12/16 13:23:32;;;;;;;7.35;3.33;;;9.80;98.20;;;;;;5117895;28;20084;-82
2021/12/16 13:26:25;;;;;;;8.10;3.95;;;9.80;97.90;;;;;;5082539;28;20149;-82
2021/12/16 13:29:16;;;;;;;9.45;3.67;;;9.70;98.10;;;;;;5083587;28;20055;-82
2021/12/16 13:32:42;;;;;;;6.55;3.88;;;9.70;98.60;;;;;;5082382;28;20068;-83
2021/12/16 13:34:56;;;;;;;5.82;3.33;;;9.70;98.00;;;;;;5105682;28;20452;-83
2021/12/16 13:37:31;;;;;;;7.80;3.47;;;9.70;97.70;;;;;;5082372;28;20076;-83
2021/12/16 13:40:19;;;;;;;6.80;3.85;;;9.60;98.20;;;;;;5098174;28;20080;-82
2021/12/16 13:42:57;;;;;;;8.00;3.78;;;9.60;99.10;;;;;;5097429;28;20032;-82
2021/12/16 13:45:42;;;;;;;6.78;3.08;;;9.60;99.20;;;;;;5081712;28;20028;-83
2021/12/16 14:03:19;;;;;;;6.22;3.28;;;9.30;99.90;;;;;;5116551;28;20043;-82
2021/12/16 14:06:20;;;;;;;7.30;3.28;;;9.20;99.90;;;;;;5081395;28;20038;-82
2021/12/16 14:08:51;;;;;;;10.63;4.18;;;9.20;99.90;;;;;;5060288;23;20418;-82
2021/12/16 14:14:28;;;;;;;8.43;4.38;;;9.20;98.30;;;;;;5036856;28;20078;-82
2021/12/16 14:17:09;;;;;;;7.78;3.92;;;9.10;98.90;;;;;;5021296;28;20048;-81
2021/12/16 14:25:35;;;;;;;10.70;3.28;;;9.00;99.90;;;;;;5038445;28;20071;-83
2021/12/16 14:31:23;;;;;;;5.07;3.47;;;8.90;99.90;;;;;;5052768;28;20126;-81
2021/12/16 14:42:33;;;;;;;10.90;3.70;;;8.90;99.90;;;;;;5037759;28;20029;-81
2021/12/16 14:45:43;;;;;;;12.68;4.07;;;8.80;99.90;;;;;;5034218;28;20185;-81
2021/12/16 14:48:35;;;;;;;7.47;3.65;;;8.70;99.90;;;;;;5034207;28;20368;-82
2021/12/16 14:51:15;;;;;;;8.43;3.60;;;8.70;99.90;;;;;;5020417;28;20060;-81
2021/12/16 14:53:43;;;;;;;7.65;3.75;;;8.70;99.90;;;;;;5018266;28;20025;-82
2021/12/16 14:56:28;;;;;;;7.38;3.83;;;8.60;99.90;;;;;;5033445;28;20029;-81
2021/12/16 14:59:00;;;;;;;7.78;3.80;;;8.60;99.90;;;;;;5017951;28;20031;-83
2021/12/16 15:01:49;;;;;;;7.30;3.20;;;8.60;99.90;;;;;;5017756;28;20078;-83
2021/12/16 15:04:19;;;;;;;7.18;3.38;;;8.50;99.90;;;;;;5020610;28;20403;-81
2021/12/16 15:06:54;;;;;;;8.90;3.70;;;8.50;99.90;;;;;;5018365;28;20029;-81
2021/12/16 15:09:38;;;;;;;8.68;4.00;;;8.50;99.90;;;;;;5034393;28;20052;-83
2021/12/16 15:37:54;;;;;;;7.47;3.53;;;8.00;99.90;;;;;;5021517;28;20035;-83
2021/12/16 15:43:22;;;;;;;5.75;3.40;;;7.90;99.90;;;;;;4959334;28;20039;-82
2021/12/16 15:45:50;;;;;;;6.22;3.03;;;7.90;99.90;;;;;;5005689;28;20037;-81
2021/12/16 15:48:21;;;;;;;5.80;3.70;;;7.90;99.90;;;;;;5017122;28;20406;-82
2021/12/16 15:50:49;;;;;;;6.97;3.03;;;7.80;99.90;;;;;;5017296;28;20029;-82
2021/12/16 15:53:18;;;;;;;10.70;3.90;;;7.80;99.90;;;;;;5033880;28;20032;-81
2021/12/16 15:56:07;;;;;;;7.28;3.60;;;7.70;99.90;;;;;;5000909;28;20040;-82
2021/12/16 15:58:49;;;;;;;9.10;4.07;;;7.70;99.90;;;;;;5033524;28;20105;-82
2021/12/16 16:01:20;;;;;;;10.82;5.15;;;7.70;99.90;;;;;;5002204;28;20035;-82
2021/12/16 16:03:49;;;;;;;10.90;5.25;;;7.70;99.90;;;;;;5033709;28;20029;-83
2021/12/16 16:06:19;;;;;;;10.10;5.22;;;7.70;99.90;;;;;;5033322;28;20029;-81
2021/12/16 16:08:54;;;;;;;11.50;5.53;;;7.70;99.90;;;;;;5017740;28;20037;-83
2021/12/16 16:11:27;;;;;;;16.40;5.65;;;7.60;99.90;;;;;;5001255;28;20025;-82
2021/12/16 16:13:58;;;;;;;8.48;4.80;;;7.60;99.90;;;;;;5017830;28;20024;-83
2021/12/16 16:16:38;;;;;;;13.10;5.18;;;7.60;99.90;;;;;;5017174;28;20025;-82
2021/12/16 16:19:04;;;;;;;;;;;7.50;99.90;;;;;;5020123;28;20083;-81
2021/12/16 16:21:37;;;;;;;16.45;5.40;;;7.50;99.90;;;;;;5017244;28;19920;-82
2021/12/16 16:24:11;;;;;;;11.73;4.82;;;7.40;99.90;;;;;;5017448;28;20052;-81
2021/12/16 16:26:39;;;;;;;8.68;4.80;;;7.40;99.90;;;;;;5017625;28;20033;-82
2021/12/16 16:29:09;;;;;;;10.93;5.03;;;7.30;99.90;;;;;;5016697;28;20047;-82
2021/12/16 16:31:38;;;;;;;13.40;5.93;;;7.30;99.90;;;;;;5000903;28;20021;-82
2021/12/16 16:34:17;;;;;;;11.30;4.73;;;7.30;99.90;;;;;;5033924;28;20029;-83
2021/12/16 16:36:46;;;;;;;10.50;4.45;;;7.20;99.90;;;;;;5033391;28;20397;-83
2021/12/16 16:39:17;;;;;;;10.48;5.50;;;7.20;99.90;;;;;;5033185;28;20495;-82
2021/12/16 16:41:49;;;;;;;9.57;5.00;;;7.20;99.90;;;;;;5019234;28;20060;-82
2021/12/16 16:44:17;;;;;;;9.95;4.72;;;7.20;99.90;;;;;;5021503;28;20132;-83